createdAt,value
2018-09-30T00:01:00.968Z,4.30
2018-09-30T00:03:31.424Z,3.57
2018-09-30T00:06:02.037Z,4.23
2018-09-30T00:08:32.436Z,3.97
2018-09-30T00:11:02.800Z,4.60
2018-09-30T00:13:33.172Z,4.70
2018-09-30T00:16:03.575Z,4.83
2018-09-30T00:18:33.949Z,4.60
2018-09-30T00:21:04.636Z,5.33
2018-09-30T00:23:40.222Z,4.63
2018-09-30T00:26:15.800Z,5.57
2018-09-30T00:28:46.216Z,6.00
2018-09-30T00:31:16.633Z,5.40
2018-09-30T00:33:51.908Z,5.33
2018-09-30T00:36:22.246Z,6.10
2018-09-30T00:38:52.604Z,6.00
2018-09-30T00:41:23.108Z,6.10
2018-09-30T00:43:53.503Z,5.30
2018-09-30T00:46:23.856Z,6.43
2018-09-30T00:48:54.327Z,6.50
2018-09-30T00:51:25.006Z,6.10
2018-09-30T00:53:55.325Z,5.53
2018-09-30T00:56:25.583Z,5.97
2018-09-30T00:58:55.988Z,5.50
2018-09-30T01:01:26.363Z,5.30
2018-09-30T01:03:56.653Z,5.97
2018-09-30T01:06:27.100Z,5.30
2018-09-30T01:08:57.368Z,5.10
2018-09-30T01:11:27.743Z,5.27
2018-09-30T01:13:58.176Z,5.50
2018-09-30T01:16:28.519Z,4.70
2018-09-30T01:18:59.001Z,4.10
2018-09-30T01:21:29.661Z,4.50
2018-09-30T01:24:00.093Z,4.80
2018-09-30T01:26:30.499Z,4.60
2018-09-30T01:29:00.892Z,5.30
2018-09-30T01:31:31.352Z,5.17
2018-09-30T01:34:01.776Z,4.63
2018-09-30T01:36:32.250Z,5.17
2018-09-30T01:39:02.687Z,5.30
2018-09-30T01:41:33.357Z,4.50
2018-09-30T01:44:03.982Z,4.70
2018-09-30T01:46:34.282Z,4.40
2018-09-30T01:49:04.671Z,4.97
2018-09-30T01:51:35.039Z,4.50
2018-09-30T01:54:05.449Z,4.70
2018-09-30T01:56:35.683Z,4.70
2018-09-30T01:59:06.197Z,4.93
2018-09-30T02:01:36.616Z,5.30
2018-09-30T02:04:06.972Z,4.40
2018-09-30T02:06:37.367Z,4.03
2018-09-30T02:09:08.763Z,4.50
2018-09-30T02:11:39.229Z,4.33
2018-09-30T02:14:10.075Z,4.83
2018-09-30T02:16:40.452Z,4.53
2018-09-30T02:19:10.769Z,4.47
2018-09-30T02:21:41.252Z,4.87
2018-09-30T02:24:11.718Z,4.53
2018-09-30T02:26:42.113Z,4.60
2018-09-30T02:29:12.411Z,4.10
2018-09-30T02:31:42.743Z,5.00
2018-09-30T02:34:13.072Z,4.10
2018-09-30T02:36:43.756Z,4.30
2018-09-30T02:39:14.131Z,4.13
2018-09-30T02:41:44.601Z,4.50
2018-09-30T02:44:15.138Z,4.80
2018-09-30T02:46:45.565Z,4.50
2018-09-30T02:49:16.111Z,4.20
2018-09-30T02:51:46.627Z,3.90
2018-09-30T02:54:16.698Z,4.40
2018-09-30T02:56:47.306Z,4.40
2018-09-30T02:59:17.753Z,4.47
2018-09-30T03:01:48.253Z,3.33
2018-09-30T03:04:18.799Z,3.83
2018-09-30T03:06:54.252Z,4.70
2018-09-30T03:09:24.613Z,4.97
2018-09-30T03:11:54.989Z,4.37
2018-09-30T03:14:25.242Z,4.30
2018-09-30T03:16:55.751Z,3.67
2018-09-30T03:19:26.023Z,4.47
2018-09-30T03:21:56.268Z,4.43
2018-09-30T03:24:26.691Z,4.53
2018-09-30T03:26:57.028Z,4.00
2018-09-30T03:29:27.320Z,4.30
2018-09-30T03:31:57.888Z,4.20
2018-09-30T03:34:28.312Z,3.67
2018-09-30T03:36:58.680Z,4.47
2018-09-30T03:39:29.054Z,5.83
2018-09-30T03:41:59.641Z,4.53
2018-09-30T03:44:30.145Z,3.87
2018-09-30T03:47:00.509Z,3.93
2018-09-30T03:49:30.805Z,3.60
2018-09-30T03:52:01.263Z,4.17
2018-09-30T03:54:31.623Z,5.00
2018-09-30T03:57:01.921Z,4.13
2018-09-30T03:59:32.183Z,5.23
2018-09-30T04:02:02.571Z,3.83
2018-09-30T04:04:33.049Z,6.00
2018-09-30T04:07:03.569Z,5.17
2018-09-30T04:09:34.145Z,4.70
2018-09-30T04:12:04.440Z,4.63
2018-09-30T04:14:34.787Z,4.10
2018-09-30T04:17:05.223Z,4.60
2018-09-30T04:19:35.547Z,4.57
2018-09-30T04:22:05.907Z,4.13
2018-09-30T04:24:36.191Z,4.70
2018-09-30T04:27:06.971Z,4.20
2018-09-30T04:29:37.420Z,3.90
2018-09-30T04:32:08.267Z,4.87
2018-09-30T04:34:38.649Z,4.50
2018-09-30T04:37:08.878Z,4.20
2018-09-30T04:39:39.393Z,4.50
2018-09-30T04:42:15.404Z,4.97
2018-09-30T04:44:45.614Z,4.70
2018-09-30T04:47:15.956Z,4.83
2018-09-30T04:49:46.317Z,5.10
2018-09-30T04:52:17.030Z,4.70
2018-09-30T04:54:47.548Z,4.63
2018-09-30T04:57:17.879Z,4.70
2018-09-30T04:59:48.227Z,5.10
2018-09-30T05:02:18.555Z,5.07
2018-09-30T05:04:48.983Z,4.47
2018-09-30T05:07:19.420Z,4.83
2018-09-30T05:09:49.803Z,5.20
2018-09-30T05:12:20.291Z,4.97
2018-09-30T05:14:50.756Z,4.80
2018-09-30T05:17:21.748Z,5.23
2018-09-30T05:19:52.249Z,5.43
2018-09-30T05:22:22.586Z,4.70
2018-09-30T05:24:52.968Z,5.30
2018-09-30T05:27:23.387Z,4.70
2018-09-30T05:29:53.685Z,5.40
2018-09-30T05:32:24.093Z,5.67
2018-09-30T05:34:54.497Z,5.10
2018-09-30T05:37:28.649Z,5.30
2018-09-30T05:39:58.847Z,4.77
2018-09-30T05:42:29.098Z,4.90
2018-09-30T05:44:59.681Z,4.80
2018-09-30T05:47:30.169Z,4.17
2018-09-30T05:50:00.608Z,4.20
2018-09-30T05:52:31.150Z,3.50
2018-09-30T05:55:01.556Z,3.53
2018-09-30T05:57:32.050Z,3.93
2018-09-30T06:00:02.476Z,3.40
2018-09-30T06:02:32.977Z,3.47
2018-09-30T06:05:03.567Z,3.63
2018-09-30T06:07:33.935Z,3.20
2018-09-30T06:10:04.380Z,3.33
2018-09-30T06:12:34.899Z,3.20
2018-09-30T06:15:05.439Z,3.17
2018-09-30T06:17:35.988Z,3.50
2018-09-30T06:20:06.977Z,3.40
2018-09-30T06:22:37.472Z,3.63
2018-09-30T06:25:08.154Z,3.83
2018-09-30T06:27:38.648Z,4.67
2018-09-30T06:30:09.044Z,4.13
2018-09-30T06:32:39.444Z,4.20
2018-09-30T06:35:09.931Z,3.77
2018-09-30T06:37:40.354Z,3.70
2018-09-30T06:40:10.920Z,4.23
2018-09-30T06:42:41.406Z,3.30
2018-09-30T06:45:11.951Z,3.20
2018-09-30T06:47:42.133Z,3.07
2018-09-30T06:50:12.538Z,3.13
2018-09-30T06:52:42.991Z,2.30
2018-09-30T06:55:13.328Z,2.93
2018-09-30T06:57:43.835Z,2.30
2018-09-30T07:00:14.169Z,2.20
2018-09-30T07:02:44.521Z,2.80
2018-09-30T07:05:14.926Z,2.10
2018-09-30T07:07:45.304Z,2.47
2018-09-30T07:10:15.567Z,2.37
2018-09-30T07:12:46.038Z,2.50
2018-09-30T07:15:21.979Z,2.77
2018-09-30T07:17:52.298Z,2.13
2018-09-30T07:20:22.697Z,2.23
2018-09-30T07:22:53.089Z,2.30
2018-09-30T07:25:23.494Z,2.43
2018-09-30T07:27:53.871Z,2.70
2018-09-30T07:30:24.246Z,2.40
2018-09-30T07:33:07.928Z,2.63
2018-09-30T07:35:38.295Z,3.00
2018-09-30T07:38:09.387Z,2.37
2018-09-30T07:40:39.655Z,3.13
2018-09-30T07:43:10.153Z,2.33
2018-09-30T07:45:40.751Z,2.60
2018-09-30T07:48:11.085Z,2.33
2018-09-30T07:50:41.831Z,2.30
2018-09-30T07:53:12.168Z,2.67
2018-09-30T07:55:43.242Z,2.50
2018-09-30T07:58:15.890Z,3.10
2018-09-30T08:00:46.204Z,2.40
2018-09-30T08:03:16.680Z,2.27
2018-09-30T08:05:47.032Z,2.07
2018-09-30T08:08:17.987Z,2.43
2018-09-30T08:10:48.409Z,2.70
2018-09-30T08:13:18.909Z,2.40
2018-09-30T08:15:51.786Z,2.40
2018-09-30T08:18:22.121Z,2.70
2018-09-30T08:20:52.387Z,2.27
2018-09-30T08:23:22.900Z,2.30
2018-09-30T08:25:52.964Z,2.17
2018-09-30T08:28:23.050Z,1.77
2018-09-30T08:30:53.162Z,2.60
2018-09-30T08:33:23.207Z,2.20
2018-09-30T08:35:58.543Z,1.90
2018-09-30T08:38:31.460Z,2.73
2018-09-30T08:41:07.166Z,1.80
2018-09-30T08:43:38.738Z,1.67
2018-09-30T08:46:09.596Z,2.03
2018-09-30T08:48:40.100Z,1.43
2018-09-30T08:51:10.547Z,1.30
2018-09-30T08:53:41.015Z,1.80
2018-09-30T08:56:11.477Z,1.63
2018-09-30T08:58:41.807Z,2.90
2018-09-30T09:01:12.297Z,1.93
2018-09-30T09:03:42.751Z,1.60
2018-09-30T09:06:13.264Z,1.63
2018-09-30T09:08:43.751Z,1.73
2018-09-30T09:11:14.136Z,1.67
2018-09-30T09:13:44.465Z,1.57
2018-09-30T09:16:15.403Z,2.00
2018-09-30T09:18:45.867Z,1.87
2018-09-30T09:21:16.363Z,2.13
2018-09-30T09:23:46.837Z,2.07
2018-09-30T09:26:17.200Z,1.70
2018-09-30T09:28:47.695Z,2.07
2018-09-30T09:31:18.064Z,1.97
2018-09-30T09:33:48.663Z,2.40
2018-09-30T09:36:19.164Z,1.83
2018-09-30T09:38:49.722Z,1.73
2018-09-30T09:41:20.095Z,1.53
2018-09-30T09:43:50.465Z,1.97
2018-09-30T09:46:20.902Z,2.00
2018-09-30T09:48:51.222Z,2.20
2018-09-30T09:51:21.532Z,1.93
2018-09-30T09:53:52.085Z,1.60
2018-09-30T09:56:22.495Z,1.50
2018-09-30T09:58:53.170Z,2.20
2018-09-30T10:01:23.374Z,1.57
2018-09-30T10:03:53.592Z,1.63
2018-09-30T10:06:24.139Z,1.97
2018-09-30T10:08:55.931Z,1.37
2018-09-30T10:11:26.408Z,1.80
2018-09-30T10:13:56.633Z,1.20
2018-09-30T10:16:27.064Z,1.83
2018-09-30T10:18:57.465Z,1.47
2018-09-30T10:21:27.950Z,2.70
2018-09-30T10:23:58.275Z,1.73
2018-09-30T10:26:28.714Z,1.70
2018-09-30T10:28:59.044Z,1.63
2018-09-30T10:31:29.448Z,2.10
2018-09-30T10:33:59.780Z,1.47
2018-09-30T10:36:30.185Z,1.23
2018-09-30T10:39:00.868Z,1.40
2018-09-30T10:41:31.276Z,1.50
2018-09-30T10:44:01.737Z,2.40
2018-09-30T10:46:32.014Z,1.97
2018-09-30T10:49:02.508Z,1.77
2018-09-30T10:51:32.871Z,1.30
2018-09-30T10:54:03.336Z,1.10
2018-09-30T10:56:33.643Z,1.30
2018-09-30T10:59:04.016Z,1.60
2018-09-30T11:01:34.503Z,1.67
2018-09-30T11:04:05.055Z,1.70
2018-09-30T11:06:35.567Z,1.60
2018-09-30T11:09:06.748Z,2.20
2018-09-30T11:11:37.018Z,1.90
2018-09-30T11:14:07.495Z,2.00
2018-09-30T11:16:37.926Z,1.60
2018-09-30T11:19:08.484Z,1.30
2018-09-30T11:21:38.899Z,1.50
2018-09-30T11:24:09.456Z,1.33
2018-09-30T11:26:39.730Z,1.50
2018-09-30T11:29:10.179Z,2.00
2018-09-30T11:31:40.645Z,1.80
2018-09-30T11:34:11.100Z,1.93
2018-09-30T11:36:41.555Z,1.80
2018-09-30T11:39:13.059Z,1.50
2018-09-30T11:41:44.017Z,2.03
2018-09-30T11:44:14.516Z,2.00
2018-09-30T11:46:44.836Z,1.73
2018-09-30T11:49:15.391Z,1.30
2018-09-30T11:51:45.994Z,1.90
2018-09-30T11:54:16.475Z,1.83
2018-09-30T11:56:46.846Z,1.60
2018-09-30T11:59:18.299Z,1.63
2018-09-30T12:01:48.659Z,1.97
2018-09-30T12:04:18.929Z,1.67
2018-09-30T12:06:49.287Z,1.60
2018-09-30T12:09:19.660Z,1.83
2018-09-30T12:11:50.253Z,2.80
2018-09-30T12:14:21.164Z,1.70
2018-09-30T12:16:51.518Z,1.87
2018-09-30T12:19:21.768Z,1.43
2018-09-30T12:21:52.208Z,1.50
2018-09-30T12:24:24.582Z,2.13
2018-09-30T12:26:54.892Z,1.70
2018-09-30T12:29:25.250Z,1.40
2018-09-30T12:31:55.508Z,1.80
2018-09-30T12:34:25.780Z,2.23
2018-09-30T12:36:56.111Z,1.40
2018-09-30T12:39:26.520Z,1.87
2018-09-30T12:41:56.936Z,2.13
2018-09-30T12:44:27.579Z,2.13
2018-09-30T12:46:58.192Z,1.70
2018-09-30T12:49:28.598Z,1.73
2018-09-30T12:51:59.640Z,1.67
2018-09-30T12:54:30.157Z,1.60
2018-09-30T12:57:00.545Z,2.43
2018-09-30T12:59:31.078Z,1.40
2018-09-30T13:02:01.614Z,1.60
2018-09-30T13:04:49.993Z,1.30
2018-09-30T13:07:20.405Z,1.30
2018-09-30T13:09:50.964Z,1.47
2018-09-30T13:12:21.382Z,1.90
2018-09-30T13:14:51.688Z,2.03
2018-09-30T13:17:22.105Z,2.03
2018-09-30T13:19:52.551Z,2.00
2018-09-30T13:22:23.005Z,1.60
2018-09-30T13:24:53.476Z,1.47
2018-09-30T13:27:23.927Z,1.90
2018-09-30T13:29:54.288Z,2.17
2018-09-30T13:32:24.860Z,1.87
2018-09-30T13:34:55.293Z,2.03
2018-09-30T13:37:25.875Z,1.50
2018-09-30T13:39:56.243Z,2.00
2018-09-30T13:42:26.630Z,2.23
2018-09-30T13:44:57.379Z,1.77
2018-09-30T13:47:27.739Z,1.80
2018-09-30T13:49:58.291Z,2.00
2018-09-30T13:52:28.647Z,1.90
2018-09-30T13:54:58.996Z,1.73
2018-09-30T13:57:29.327Z,1.93
2018-09-30T13:59:59.869Z,2.10
2018-09-30T14:02:30.183Z,2.03
2018-09-30T14:05:00.411Z,2.07
2018-09-30T14:07:30.816Z,1.83
2018-09-30T14:10:01.213Z,1.97
2018-09-30T14:12:32.446Z,1.63
2018-09-30T14:15:02.768Z,2.27
2018-09-30T14:17:33.155Z,1.80
2018-09-30T14:20:03.639Z,2.23
2018-09-30T14:22:33.940Z,1.87
2018-09-30T14:25:04.408Z,1.43
2018-09-30T14:27:34.850Z,1.93
2018-09-30T14:30:04.988Z,1.70
2018-09-30T14:32:35.332Z,1.60
2018-09-30T14:35:05.900Z,1.67
2018-09-30T14:37:36.282Z,1.73
2018-09-30T14:40:06.989Z,1.57
2018-09-30T14:42:37.379Z,1.70
2018-09-30T14:45:08.170Z,1.93
2018-09-30T14:47:38.661Z,1.83
2018-09-30T14:50:09.119Z,1.67
2018-09-30T14:52:39.292Z,1.70
2018-09-30T14:55:09.265Z,1.67
2018-09-30T14:57:39.759Z,1.93
2018-09-30T15:00:10.245Z,1.83
2018-09-30T15:02:40.608Z,1.47
2018-09-30T15:05:11.196Z,2.00
2018-09-30T15:07:42.162Z,1.77
2018-09-30T15:10:12.667Z,1.67
2018-09-30T15:12:43.819Z,1.83
2018-09-30T15:15:14.336Z,1.77
2018-09-30T15:17:44.653Z,1.60
2018-09-30T15:20:15.107Z,1.50
2018-09-30T15:22:45.248Z,1.83
2018-09-30T15:25:15.663Z,1.40
2018-09-30T15:27:46.136Z,1.80
2018-09-30T15:30:16.655Z,1.33
2018-09-30T15:32:47.030Z,1.63
2018-09-30T15:35:17.288Z,1.30
2018-09-30T15:37:47.743Z,2.20
2018-09-30T15:40:18.164Z,3.70
2018-09-30T15:42:48.663Z,2.70
2018-09-30T15:45:18.999Z,1.67
2018-09-30T15:47:49.519Z,1.90
2018-09-30T15:50:19.981Z,1.80
2018-09-30T15:52:50.452Z,1.43
2018-09-30T15:55:20.952Z,1.40
2018-09-30T15:57:51.532Z,1.43
2018-09-30T16:00:21.881Z,1.63
2018-09-30T16:02:52.386Z,1.93
2018-09-30T16:05:22.880Z,3.10
2018-09-30T16:07:53.260Z,8.80
2018-09-30T16:10:23.587Z,3.17
2018-09-30T16:12:53.992Z,1.97
2018-09-30T16:15:24.391Z,1.90
2018-09-30T16:17:54.659Z,1.73
2018-09-30T16:20:25.166Z,1.70
2018-09-30T16:22:55.716Z,1.70
2018-09-30T16:25:25.968Z,1.30
2018-09-30T16:27:56.256Z,1.80
2018-09-30T16:30:26.768Z,1.93
2018-09-30T16:32:57.259Z,1.40
2018-09-30T16:35:27.616Z,1.50
2018-09-30T16:37:57.879Z,1.53
2018-09-30T16:40:28.374Z,1.97
2018-09-30T16:42:58.671Z,1.80
2018-09-30T16:45:29.033Z,2.20
2018-09-30T16:47:59.495Z,2.47
2018-09-30T16:50:30.113Z,2.23
2018-09-30T16:53:00.592Z,2.50
2018-09-30T16:55:31.067Z,2.37
2018-09-30T16:58:01.457Z,1.83
2018-09-30T17:00:31.916Z,1.50
2018-09-30T17:03:02.300Z,1.73
2018-09-30T17:05:32.676Z,2.03
2018-09-30T17:08:03.866Z,2.00
2018-09-30T17:10:34.367Z,4.30
2018-09-30T17:13:04.756Z,5.23
2018-09-30T17:15:35.024Z,2.87
2018-09-30T17:18:05.395Z,1.83
2018-09-30T17:20:35.746Z,1.97
2018-09-30T17:23:06.407Z,2.20
2018-09-30T17:25:36.705Z,2.50
2018-09-30T17:28:07.115Z,1.97
2018-09-30T17:30:37.600Z,2.67
2018-09-30T17:33:08.101Z,2.20
2018-09-30T17:35:38.600Z,2.63
2018-09-30T17:38:08.987Z,2.77
2018-09-30T17:40:39.896Z,2.50
2018-09-30T17:43:10.138Z,2.47
2018-09-30T17:45:40.574Z,2.70
2018-09-30T17:48:11.146Z,2.40
2018-09-30T17:50:41.572Z,2.77
2018-09-30T17:53:11.966Z,2.20
2018-09-30T17:55:42.300Z,2.80
2018-09-30T17:58:12.612Z,2.43
2018-09-30T18:00:43.304Z,2.77
2018-09-30T18:03:13.818Z,2.73
2018-09-30T18:05:44.272Z,2.70
2018-09-30T18:08:14.914Z,2.90
2018-09-30T18:10:45.235Z,3.23
2018-09-30T18:13:15.696Z,2.73
2018-09-30T18:15:46.064Z,2.80
2018-09-30T18:18:16.570Z,4.23
2018-09-30T18:20:47.527Z,3.60
2018-09-30T18:23:17.947Z,3.40
2018-09-30T18:25:48.175Z,3.93
2018-09-30T18:28:18.481Z,3.13
2018-09-30T18:30:48.789Z,3.50
2018-09-30T18:33:19.297Z,3.17
2018-09-30T18:35:49.620Z,3.77
2018-09-30T18:38:20.133Z,3.40
2018-09-30T18:40:51.112Z,3.70
2018-09-30T18:43:21.458Z,3.70
2018-09-30T18:45:52.343Z,3.30
2018-09-30T18:48:22.835Z,4.03
2018-09-30T18:50:53.235Z,4.77
2018-09-30T18:53:23.619Z,4.50
2018-09-30T18:55:53.983Z,4.60
2018-09-30T18:58:24.550Z,4.10
2018-09-30T19:00:54.850Z,3.30
2018-09-30T19:03:25.259Z,3.33
2018-09-30T19:05:55.594Z,3.60
2018-09-30T19:08:26.391Z,4.40
2018-09-30T19:10:56.860Z,3.73
2018-09-30T19:13:27.272Z,3.67
2018-09-30T19:15:57.812Z,3.30
2018-09-30T19:18:28.004Z,3.73
2018-09-30T19:20:58.875Z,3.70
2018-09-30T19:23:29.184Z,3.50
2018-09-30T19:25:59.660Z,4.43
2018-09-30T19:28:29.960Z,4.20
2018-09-30T19:31:00.795Z,4.73
2018-09-30T19:33:31.262Z,4.53
2018-09-30T19:36:01.564Z,5.03
2018-09-30T19:38:31.972Z,5.50
2018-09-30T19:41:02.987Z,4.60
2018-09-30T19:43:33.448Z,4.60
2018-09-30T19:46:03.936Z,6.23
2018-09-30T19:48:34.389Z,4.87
2018-09-30T19:51:05.050Z,4.83
2018-09-30T19:53:35.376Z,4.67
2018-09-30T19:56:05.871Z,3.83
2018-09-30T19:58:36.339Z,3.77
2018-09-30T20:01:06.914Z,3.57
2018-09-30T20:03:37.337Z,3.80
2018-09-30T20:06:08.414Z,4.17
2018-09-30T20:08:38.928Z,3.47
2018-09-30T20:11:09.365Z,2.93
2018-09-30T20:13:39.651Z,2.80
2018-09-30T20:16:10.099Z,2.93
2018-09-30T20:18:40.603Z,2.80
2018-09-30T20:21:11.184Z,2.93
2018-09-30T20:23:41.343Z,2.97
2018-09-30T20:26:11.842Z,2.87
2018-09-30T20:28:42.400Z,3.47
2018-09-30T20:31:12.852Z,3.70
2018-09-30T20:33:43.199Z,2.70
2018-09-30T20:36:13.432Z,3.10
2018-09-30T20:38:43.858Z,2.87
2018-09-30T20:41:14.298Z,3.37
2018-09-30T20:43:44.720Z,2.60
2018-09-30T20:46:15.397Z,3.17
2018-09-30T20:48:46.180Z,2.47
2018-09-30T20:51:16.605Z,2.67
2018-09-30T20:53:46.824Z,3.10
2018-09-30T20:56:17.318Z,2.90
2018-09-30T20:58:47.979Z,2.50
2018-09-30T21:01:19.467Z,3.00
2018-09-30T21:03:49.815Z,2.87
2018-09-30T21:06:28.215Z,3.37
2018-09-30T21:08:58.755Z,3.43
2018-09-30T21:11:29.443Z,3.80
2018-09-30T21:14:00.035Z,3.33
2018-09-30T21:16:30.589Z,3.47
2018-09-30T21:19:01.092Z,4.50
2018-09-30T21:21:31.364Z,4.20
2018-09-30T21:24:01.832Z,4.03
2018-09-30T21:26:32.927Z,4.33
2018-09-30T21:29:03.336Z,3.60
2018-09-30T21:31:35.069Z,3.20
2018-09-30T21:34:05.615Z,2.67
2018-09-30T21:36:36.182Z,3.10
2018-09-30T21:39:09.528Z,3.37
2018-09-30T21:41:39.969Z,3.07
2018-09-30T21:44:11.167Z,3.20
2018-09-30T21:46:41.866Z,3.10
2018-09-30T21:49:12.393Z,3.00
2018-09-30T21:51:42.640Z,2.97
2018-09-30T21:54:13.051Z,2.90
2018-09-30T21:56:43.313Z,2.97
2018-09-30T21:59:13.696Z,2.60
2018-09-30T22:01:44.107Z,3.47
2018-09-30T22:04:14.667Z,2.83
2018-09-30T22:06:45.139Z,3.67
2018-09-30T22:09:15.292Z,2.07
2018-09-30T22:11:45.674Z,3.30
2018-09-30T22:14:16.111Z,3.40
2018-09-30T22:16:46.346Z,3.20
2018-09-30T22:19:16.689Z,3.67
2018-09-30T22:21:47.090Z,3.40
2018-09-30T22:24:17.397Z,3.50
2018-09-30T22:26:47.898Z,4.17
2018-09-30T22:29:18.256Z,3.70
2018-09-30T22:31:49.539Z,3.33
2018-09-30T22:34:19.712Z,4.07
2018-09-30T22:36:50.182Z,4.10
2018-09-30T22:39:20.669Z,3.27
2018-09-30T22:41:51.168Z,3.27
2018-09-30T22:44:21.567Z,3.40
2018-09-30T22:46:51.823Z,3.40
2018-09-30T22:49:22.207Z,3.77
2018-09-30T22:51:52.595Z,3.37
2018-09-30T22:54:23.160Z,3.63
2018-09-30T22:56:54.836Z,3.60
2018-09-30T22:59:26.687Z,3.57
2018-09-30T23:01:57.274Z,4.13
2018-09-30T23:04:27.624Z,3.47
2018-09-30T23:06:58.160Z,3.90
2018-09-30T23:09:29.295Z,3.63
2018-09-30T23:12:09.815Z,3.87
2018-09-30T23:14:40.142Z,3.63
2018-09-30T23:17:10.961Z,4.00
2018-09-30T23:19:41.267Z,4.67
2018-09-30T23:22:11.888Z,3.70
2018-09-30T23:24:42.271Z,3.50
2018-09-30T23:27:12.611Z,3.50
2018-09-30T23:29:42.900Z,3.90
2018-09-30T23:32:13.277Z,3.83
2018-09-30T23:37:43.831Z,3.70
2018-09-30T23:40:14.124Z,4.03
2018-09-30T23:42:44.995Z,3.83
2018-09-30T23:45:15.376Z,3.90
2018-09-30T23:47:45.756Z,3.43
2018-09-30T23:50:16.127Z,4.07
2018-09-30T23:52:46.592Z,4.00
2018-09-30T23:55:17.122Z,4.50
2018-09-30T23:57:47.623Z,4.23
